WetterOnline ( https://www.wetteronline.de )

Wetter aktuell Harz

Aktuelles Wetter: Ummendorf (163m)

6-stündlich | Neueste Meldungen
Ortszeit Temperatur Wetter
Mi, 17.07. 8:00 16.5° C bedeckt
Mi, 17.07. 2:00 14.2° C wolkenlos
Di, 16.07. 20:00 18.6° C leicht bewölkt
Di, 16.07. 14:00 25.1° C bewölkt
Di, 16.07. 8:00 17.9° C wolkig
Di, 16.07. 2:00 18.6° C bedeckt
Mo, 15.07. 20:00 26.9° C wolkig
Mo, 15.07. 14:00 25.1° C wolkenlos
Ortszeit Temperatur Wetter
Mi, 17.07. 11:10 19.0° C bewölkt
Mi, 17.07. 11:00 18.3° C bewölkt
Mi, 17.07. 10:50 18.3° C bewölkt
Mi, 17.07. 10:40 17.9° C bedeckt
Mi, 17.07. 10:30 17.7° C bewölkt
Mi, 17.07. 10:20 17.7° C bewölkt
Mi, 17.07. 10:00 17.7° C bewölkt
Mi, 17.07. 9:30 17.6° C wolkig
Mi, 17.07. 9:00 17.0° C bewölkt
Mi, 17.07. 8:30 16.8° C bedeckt
Ortszeit Relative Feuchte Sichtweite
Mi, 17.07. 8:00 82% >70 km
Mi, 17.07. 2:00 85% 55 km
Di, 16.07. 20:00 85% 65 km
Di, 16.07. 14:00 53% 50 km
Di, 16.07. 8:00 92% 28 km
Di, 16.07. 2:00 70% 50 km
Mo, 15.07. 20:00 35% 55 km
Mo, 15.07. 14:00 43% 50 km
Ortszeit Relative Feuchte Sichtweite
Mi, 17.07. 11:10 71% -
Mi, 17.07. 11:00 72% 60 km
Mi, 17.07. 10:50 72% -
Mi, 17.07. 10:40 74% -
Mi, 17.07. 10:30 76% 65 km
Mi, 17.07. 10:20 76% -
Mi, 17.07. 10:00 76% 45 km
Mi, 17.07. 9:30 77% 50 km
Mi, 17.07. 9:00 81% >70 km
Mi, 17.07. 8:30 81% 60 km
Ortszeit Niederschlagsmenge Niederschlagsart
Mi, 17.07. 8:00 0.4 l/m2 in 12 Std. -
Mi, 17.07. 2:00 0.4 l/m2 in 6 Std. Regen
Di, 16.07. 20:00 1 l/m2 in 12 Std. Regen
Di, 16.07. 14:00 0.0 l/m2 in 6 Std. -
Di, 16.07. 8:00 3 l/m2 in 12 Std. Regen
Di, 16.07. 2:00 0.0 l/m2 in 6 Std. -
Mo, 15.07. 20:00 0.0 l/m2 in 12 Std. -
Mo, 15.07. 14:00 0.0 l/m2 in 6 Std. -
Ortszeit Niederschlagsmenge Niederschlagsart
Mi, 17.07. 11:10 keine Meldung -
Mi, 17.07. 11:00 0.0 l/m2 in 1 Std. -
Mi, 17.07. 10:50 keine Meldung -
Mi, 17.07. 10:40 keine Meldung -
Mi, 17.07. 10:30 0.0 l/m2 in 30 Min -
Mi, 17.07. 10:20 keine Meldung -
Mi, 17.07. 10:00 0.0 l/m2 in 1 Std. -
Mi, 17.07. 9:30 0.0 l/m2 in 30 Min -
Mi, 17.07. 9:00 0.0 l/m2 in 1 Std. -
Mi, 17.07. 8:30 0.0 l/m2 in 30 Min -
Ortszeit Stärke Spitze Richtung
km/h Bft. km/h Grad Sektor
Mi, 17.07. 8:00 13 3 28 230° SW
Mi, 17.07. 2:00 6 1 46 160° S
Di, 16.07. 20:00 7 2 68 280° W
Di, 16.07. 14:00 19 3 41 220° SW
Di, 16.07. 8:00 7 2 47 140° SO
Di, 16.07. 2:00 7 2 15 80° O
Mo, 15.07. 20:00 4 1 25 80° O
Mo, 15.07. 14:00 11 2 19 290° W
Ortszeit Stärke Spitze Richtung
km/h Bft. km/h Grad Sektor
Mi, 17.07. 11:10 25 4 - 250° W
Mi, 17.07. 11:00 26 4 35 260° W
Mi, 17.07. 10:50 26 4 - 260° W
Mi, 17.07. 10:40 25 4 - 260° W
Mi, 17.07. 10:30 24 4 35 250° W
Mi, 17.07. 10:20 24 4 - 250° W
Mi, 17.07. 10:00 25 4 43 250° W
Mi, 17.07. 9:30 29 5 43 250° W
Mi, 17.07. 9:00 22 4 32 250° W
Mi, 17.07. 8:30 22 4 32 250° W
Ortszeit Untergrenze Bedeckung Gattung
total tief tief mittel hoch
Mi, 17.07. 8:00 900 m 8/8 8/8 - - -
Mi, 17.07. 2:00 - 0/8 0/8 - - -
Di, 16.07. 20:00 2400 m 6/8 1/8 - - -
Di, 16.07. 14:00 1380 m 7/8 7/8 - - -
Di, 16.07. 8:00 2400 m 8/8 1/8 - - -
Di, 16.07. 2:00 4800 m 8/8 8/8 - - -
Mo, 15.07. 20:00 7500 m 8/8 0/8 - - -
Mo, 15.07. 14:00 - 0/8 0/8 - - -
Ortszeit Bedeckungsgrad in Achtel und Wolkenuntergrenze
Mi, 17.07. 11:10 7
Mi, 17.07. 11:00 2(750m) 6(1020m) 8(7800m)
Mi, 17.07. 10:50 2(750m) 6(1020m) 8(7800m)
Mi, 17.07. 10:40 8
Mi, 17.07. 10:30 6(630m) 7(870m) 7(1080m)
Mi, 17.07. 10:20 6(630m) 7(870m) 7(1080m)
Mi, 17.07. 10:00 5(600m) 7(1020m) 8(7500m)
Mi, 17.07. 9:30 2(600m) 8(7200m)
Mi, 17.07. 9:00 4(750m) 5(990m) 8(7200m)
Mi, 17.07. 8:30 4(930m) 8(2100m)
Ortszeit Luftdruck NN (hPa) Tendenz (hPa in 3 Std.)
Mi, 17.07. 8:00 1017 + 1,2
Mi, 17.07. 2:00 1016 + 0,7
Di, 16.07. 20:00 1013 + 1,2
Di, 16.07. 14:00 1010 - 0,2
Di, 16.07. 8:00 1010 + 0,6
Di, 16.07. 2:00 1009 - 1,4
Mo, 15.07. 20:00 1010 - 1,2
Mo, 15.07. 14:00 1013 - 0,5
Ortszeit Luftdruck NN (hPa) Tendenz (hPa in 3 Std.)
Mi, 17.07. 11:10 1019 keine Meldung
Mi, 17.07. 11:00 1019 + 1,3
Mi, 17.07. 10:50 1019 keine Meldung
Mi, 17.07. 10:40 1019 keine Meldung
Mi, 17.07. 10:30 1018 + 1,4
Mi, 17.07. 10:20 1018 keine Meldung
Mi, 17.07. 10:00 1018 + 1,5
Mi, 17.07. 9:30 1018 + 1,4
Mi, 17.07. 9:00 1018 + 1,4
Mi, 17.07. 8:30 1018 + 1,2
Ortszeit Schneehöhe (cm)
Mi, 17.07. 8:00 0
Mi, 17.07. 2:00 0
Di, 16.07. 20:00 0
Di, 16.07. 14:00 0
Di, 16.07. 8:00 0
Di, 16.07. 2:00 0
Mo, 15.07. 20:00 0
Mo, 15.07. 14:00 0
Ortszeit Schneehöhe (cm)
Mi, 17.07. 11:10 -
Mi, 17.07. 11:00 0
Mi, 17.07. 10:50 0
Mi, 17.07. 10:40 -
Mi, 17.07. 10:30 0
Mi, 17.07. 10:20 0
Mi, 17.07. 10:00 0
Mi, 17.07. 9:30 0
Mi, 17.07. 9:00 0
Mi, 17.07. 8:30 0
Link zu dieser Seite / Seite empfehlen

Das Wetter in ...